sensor_id;sensor_type;location;lat;lon;timestamp;pressure;altitude;pressure_sealevel;temperature;humidity
28456;BME280;15682;56.742;38.866;2022-09-13T00:01:04;99810.0;;;5.9;85.5
28456;BME280;15682;56.742;38.866;2022-09-13T00:03:05;99810.0;;;5.7;86.7
28456;BME280;15682;56.742;38.866;2022-09-13T00:05:05;99810.0;;;5.7;86.7
28456;BME280;15682;56.742;38.866;2022-09-13T00:07:05;99810.0;;;5.7;87.2
28456;BME280;15682;56.742;38.866;2022-09-13T00:09:05;99810.0;;;5.7;87.2
28456;BME280;15682;56.742;38.866;2022-09-13T00:11:05;99810.0;;;5.7;87.7
28456;BME280;15682;56.742;38.866;2022-09-13T00:13:05;99810.0;;;5.6;87.7
28456;BME280;15682;56.742;38.866;2022-09-13T00:15:06;99810.0;;;5.6;88.2
28456;BME280;15682;56.742;38.866;2022-09-13T00:17:05;99810.0;;;5.5;88.5
28456;BME280;15682;56.742;38.866;2022-09-13T00:19:05;99810.0;;;5.5;88.5
28456;BME280;15682;56.742;38.866;2022-09-13T00:21:08;99810.0;;;5.4;88.9
28456;BME280;15682;56.742;38.866;2022-09-13T00:23:05;99810.0;;;5.4;88.9
28456;BME280;15682;56.742;38.866;2022-09-13T00:25:06;99810.0;;;5.4;88.9
28456;BME280;15682;56.742;38.866;2022-09-13T00:27:05;99810.0;;;5.5;89.3
28456;BME280;15682;56.742;38.866;2022-09-13T00:29:06;99800.0;;;5.6;88.3
28456;BME280;15682;56.742;38.866;2022-09-13T00:31:07;99790.0;;;5.6;88.9
28456;BME280;15682;56.742;38.866;2022-09-13T00:33:06;99790.0;;;5.6;88.0
28456;BME280;15682;56.742;38.866;2022-09-13T00:35:07;99790.0;;;5.6;88.5
28456;BME280;15682;56.742;38.866;2022-09-13T00:37:06;99780.0;;;5.6;87.7
28456;BME280;15682;56.742;38.866;2022-09-13T00:39:06;99780.0;;;5.6;88.9
28456;BME280;15682;56.742;38.866;2022-09-13T00:41:09;99780.0;;;5.5;88.9
28456;BME280;15682;56.742;38.866;2022-09-13T00:43:15;99780.0;;;5.5;87.6
28456;BME280;15682;56.742;38.866;2022-09-13T00:45:15;99780.0;;;5.3;88.5
28456;BME280;15682;56.742;38.866;2022-09-13T00:47:06;99780.0;;;5.3;89.1
28456;BME280;15682;56.742;38.866;2022-09-13T00:49:14;99780.0;;;5.3;88.5
28456;BME280;15682;56.742;38.866;2022-09-13T00:51:07;99780.0;;;5.3;88.5
28456;BME280;15682;56.742;38.866;2022-09-13T00:53:10;99780.0;;;5.3;89.4
28456;BME280;15682;56.742;38.866;2022-09-13T00:53:56;99780.0;;;5.3;84.6
28456;BME280;15682;56.742;38.866;2022-09-13T00:54:47;99780.0;;;5.3;89.4
28456;BME280;15682;56.742;38.866;2022-09-13T00:55:11;99780.0;;;5.3;90.1
28456;BME280;15682;56.742;38.866;2022-09-13T00:57:09;99780.0;;;5.3;90.8
28456;BME280;15682;56.742;38.866;2022-09-13T00:59:09;99780.0;;;5.3;91.5
28456;BME280;15682;56.742;38.866;2022-09-13T01:01:09;99780.0;;;5.3;90.6
28456;BME280;15682;56.742;38.866;2022-09-13T01:03:09;99780.0;;;5.3;88.9
28456;BME280;15682;56.742;38.866;2022-09-13T01:05:07;99780.0;;;5.2;89.6
28456;BME280;15682;56.742;38.866;2022-09-13T01:07:10;99780.0;;;5.2;88.2
28456;BME280;15682;56.742;38.866;2022-09-13T01:09:07;99780.0;;;5.2;88.2
28456;BME280;15682;56.742;38.866;2022-09-13T01:11:11;99780.0;;;5.1;86.5
28456;BME280;15682;56.742;38.866;2022-09-13T01:13:10;99780.0;;;5.1;86.5
28456;BME280;15682;56.742;38.866;2022-09-13T01:15:08;99780.0;;;5.2;87.5
28456;BME280;15682;56.742;38.866;2022-09-13T01:17:07;99780.0;;;5.2;88.7
28456;BME280;15682;56.742;38.866;2022-09-13T01:19:07;99780.0;;;5.2;87.0
28456;BME280;15682;56.742;38.866;2022-09-13T01:21:32;99780.0;;;5.2;88.0
28456;BME280;15682;56.742;38.866;2022-09-13T01:23:29;99780.0;;;5.3;86.5
28456;BME280;15682;56.742;38.866;2022-09-13T01:25:24;99780.0;;;5.3;86.5
28456;BME280;15682;56.742;38.866;2022-09-13T01:27:22;99780.0;;;5.3;86.4
28456;BME280;15682;56.742;38.866;2022-09-13T01:29:26;99780.0;;;5.1;86.2
28456;BME280;15682;56.742;38.866;2022-09-13T01:31:12;99780.0;;;5.1;87.3
28456;BME280;15682;56.742;38.866;2022-09-13T01:33:18;99770.0;;;5.1;86.4
28456;BME280;15682;56.742;38.866;2022-09-13T01:35:13;99760.0;;;5.1;86.4
28456;BME280;15682;56.742;38.866;2022-09-13T01:37:20;99760.0;;;5.1;86.7
28456;BME280;15682;56.742;38.866;2022-09-13T01:39:11;99760.0;;;5.3;86.7
28456;BME280;15682;56.742;38.866;2022-09-13T01:41:19;99760.0;;;5.3;86.3
28456;BME280;15682;56.742;38.866;2022-09-13T01:43:22;99760.0;;;5.2;86.3
28456;BME280;15682;56.742;38.866;2022-09-13T01:45:19;99760.0;;;5.2;86.4
28456;BME280;15682;56.742;38.866;2022-09-13T01:47:17;99760.0;;;5.1;86.4
28456;BME280;15682;56.742;38.866;2022-09-13T01:49:15;99760.0;;;5.1;86.4
28456;BME280;15682;56.742;38.866;2022-09-13T01:51:12;99760.0;;;5.1;86.4
28456;BME280;15682;56.742;38.866;2022-09-13T01:53:16;99760.0;;;5.2;86.4
28456;BME280;15682;56.742;38.866;2022-09-13T01:55:19;99760.0;;;5.3;86.9
28456;BME280;15682;56.742;38.866;2022-09-13T01:57:13;99760.0;;;5.3;87.0
28456;BME280;15682;56.742;38.866;2022-09-13T01:59:14;99760.0;;;5.3;87.0
28456;BME280;15682;56.742;38.866;2022-09-13T02:01:12;99760.0;;;5.1;87.0
28456;BME280;15682;56.742;38.866;2022-09-13T02:03:11;99760.0;;;5.1;87.4
28456;BME280;15682;56.742;38.866;2022-09-13T02:05:13;99760.0;;;5.1;87.4
28456;BME280;15682;56.742;38.866;2022-09-13T02:07:11;99760.0;;;5.1;87.0
28456;BME280;15682;56.742;38.866;2022-09-13T02:09:12;99760.0;;;5.1;87.0
28456;BME280;15682;56.742;38.866;2022-09-13T02:11:11;99760.0;;;5.1;89.1
28456;BME280;15682;56.742;38.866;2022-09-13T02:13:12;99760.0;;;5.2;89.3
28456;BME280;15682;56.742;38.866;2022-09-13T02:15:15;99760.0;;;5.0;87.3
28456;BME280;15682;56.742;38.866;2022-09-13T02:17:12;99760.0;;;4.8;88.3
28456;BME280;15682;56.742;38.866;2022-09-13T02:19:14;99760.0;;;4.7;88.3
28456;BME280;15682;56.742;38.866;2022-09-13T02:21:12;99760.0;;;4.6;88.1
28456;BME280;15682;56.742;38.866;2022-09-13T02:23:13;99760.0;;;4.5;88.6
28456;BME280;15682;56.742;38.866;2022-09-13T02:25:13;99760.0;;;4.3;90.6
28456;BME280;15682;56.742;38.866;2022-09-13T02:27:12;99760.0;;;4.3;88.1
28456;BME280;15682;56.742;38.866;2022-09-13T02:29:13;99760.0;;;4.3;89.8
28456;BME280;15682;56.742;38.866;2022-09-13T02:31:11;99760.0;;;4.3;88.9
28456;BME280;15682;56.742;38.866;2022-09-13T02:33:12;99760.0;;;4.2;88.4
28456;BME280;15682;56.742;38.866;2022-09-13T02:35:15;99770.0;;;4.1;90.3
28456;BME280;15682;56.742;38.866;2022-09-13T02:37:10;99780.0;;;4.1;89.0
28456;BME280;15682;56.742;38.866;2022-09-13T02:39:13;99780.0;;;4.1;90.1
28456;BME280;15682;56.742;38.866;2022-09-13T02:41:15;99780.0;;;4.3;90.1
28456;BME280;15682;56.742;38.866;2022-09-13T02:43:13;99780.0;;;4.3;90.1
28456;BME280;15682;56.742;38.866;2022-09-13T02:45:12;99780.0;;;4.4;90.1
28456;BME280;15682;56.742;38.866;2022-09-13T02:47:21;99780.0;;;4.4;90.7
28456;BME280;15682;56.742;38.866;2022-09-13T02:49:14;99780.0;;;4.4;90.7
28456;BME280;15682;56.742;38.866;2022-09-13T02:51:16;99780.0;;;4.5;90.7
28456;BME280;15682;56.742;38.866;2022-09-13T02:53:14;99780.0;;;4.5;90.7
28456;BME280;15682;56.742;38.866;2022-09-13T02:55:16;99780.0;;;4.7;90.7
28456;BME280;15682;56.742;38.866;2022-09-13T02:57:15;99770.0;;;4.7;89.6
28456;BME280;15682;56.742;38.866;2022-09-13T02:59:14;99770.0;;;4.7;89.6
28456;BME280;15682;56.742;38.866;2022-09-13T03:01:11;99770.0;;;4.9;89.6
28456;BME280;15682;56.742;38.866;2022-09-13T03:03:12;99770.0;;;4.8;89.1
28456;BME280;15682;56.742;38.866;2022-09-13T03:05:11;99770.0;;;4.8;89.1
28456;BME280;15682;56.742;38.866;2022-09-13T03:07:11;99760.0;;;4.8;89.8
28456;BME280;15682;56.742;38.866;2022-09-13T03:09:11;99760.0;;;4.8;89.8
28456;BME280;15682;56.742;38.866;2022-09-13T03:11:15;99760.0;;;4.7;89.8
28456;BME280;15682;56.742;38.866;2022-09-13T03:13:29;99760.0;;;4.6;90.4
28456;BME280;15682;56.742;38.866;2022-09-13T03:15:19;99760.0;;;4.6;90.4
28456;BME280;15682;56.742;38.866;2022-09-13T03:17:16;99760.0;;;4.7;90.5
28456;BME280;15682;56.742;38.866;2022-09-13T03:19:22;99760.0;;;4.7;90.5
28456;BME280;15682;56.742;38.866;2022-09-13T03:21:22;99760.0;;;4.7;90.5
28456;BME280;15682;56.742;38.866;2022-09-13T03:23:24;99760.0;;;4.6;90.5
28456;BME280;15682;56.742;38.866;2022-09-13T03:25:14;99760.0;;;4.6;90.5
28456;BME280;15682;56.742;38.866;2022-09-13T03:27:18;99760.0;;;4.6;90.7
28456;BME280;15682;56.742;38.866;2022-09-13T03:29:23;99760.0;;;4.6;90.7
28456;BME280;15682;56.742;38.866;2022-09-13T03:31:26;99760.0;;;4.7;90.7
28456;BME280;15682;56.742;38.866;2022-09-13T03:33:17;99760.0;;;4.8;89.9
28456;BME280;15682;56.742;38.866;2022-09-13T03:35:19;99760.0;;;5.0;89.4
28456;BME280;15682;56.742;38.866;2022-09-13T03:37:18;99750.0;;;5.0;89.4
28456;BME280;15682;56.742;38.866;2022-09-13T03:39:16;99750.0;;;5.0;89.4
28456;BME280;15682;56.742;38.866;2022-09-13T03:41:15;99740.0;;;5.1;89.4
28456;BME280;15682;56.742;38.866;2022-09-13T03:43:13;99740.0;;;5.2;89.4
28456;BME280;15682;56.742;38.866;2022-09-13T03:45:13;99740.0;;;5.2;88.3
28456;BME280;15682;56.742;38.866;2022-09-13T03:47:12;99740.0;;;5.2;88.4
28456;BME280;15682;56.742;38.866;2022-09-13T03:49:14;99740.0;;;5.2;88.4
28456;BME280;15682;56.742;38.866;2022-09-13T03:51:12;99740.0;;;5.3;87.7
28456;BME280;15682;56.742;38.866;2022-09-13T03:53:17;99740.0;;;5.4;88.2
28456;BME280;15682;56.742;38.866;2022-09-13T03:55:12;99740.0;;;5.4;87.9
28456;BME280;15682;56.742;38.866;2022-09-13T03:57:13;99740.0;;;5.4;87.0
28456;BME280;15682;56.742;38.866;2022-09-13T03:59:14;99740.0;;;5.4;87.0
28456;BME280;15682;56.742;38.866;2022-09-13T04:01:12;99740.0;;;5.4;86.5
28456;BME280;15682;56.742;38.866;2022-09-13T04:03:13;99740.0;;;5.5;84.7
28456;BME280;15682;56.742;38.866;2022-09-13T04:05:12;99740.0;;;5.5;84.4
28456;BME280;15682;56.742;38.866;2022-09-13T04:07:13;99740.0;;;5.6;84.4
28456;BME280;15682;56.742;38.866;2022-09-13T04:09:12;99740.0;;;5.6;84.1
28456;BME280;15682;56.742;38.866;2022-09-13T04:11:12;99740.0;;;5.8;84.1
28456;BME280;15682;56.742;38.866;2022-09-13T04:13:12;99740.0;;;6.0;83.5
28456;BME280;15682;56.742;38.866;2022-09-13T04:15:12;99740.0;;;6.0;82.7
28456;BME280;15682;56.742;38.866;2022-09-13T04:17:13;99740.0;;;6.1;82.7
28456;BME280;15682;56.742;38.866;2022-09-13T04:19:13;99740.0;;;6.2;82.7
28456;BME280;15682;56.742;38.866;2022-09-13T04:21:13;99730.0;;;6.4;82.1
28456;BME280;15682;56.742;38.866;2022-09-13T04:23:13;99730.0;;;6.5;81.6
28456;BME280;15682;56.742;38.866;2022-09-13T04:25:13;99730.0;;;6.7;81.5
28456;BME280;15682;56.742;38.866;2022-09-13T04:27:13;99730.0;;;6.8;81.5
28456;BME280;15682;56.742;38.866;2022-09-13T04:29:14;99730.0;;;6.9;81.0
28456;BME280;15682;56.742;38.866;2022-09-13T04:31:14;99740.0;;;6.9;80.4
28456;BME280;15682;56.742;38.866;2022-09-13T04:33:15;99740.0;;;7.1;79.9
28456;BME280;15682;56.742;38.866;2022-09-13T04:35:14;99740.0;;;7.4;79.3
28456;BME280;15682;56.742;38.866;2022-09-13T04:37:14;99740.0;;;7.4;79.2
28456;BME280;15682;56.742;38.866;2022-09-13T04:39:14;99740.0;;;7.4;78.6
28456;BME280;15682;56.742;38.866;2022-09-13T04:41:14;99740.0;;;7.4;78.6
28456;BME280;15682;56.742;38.866;2022-09-13T04:43:15;99740.0;;;7.5;78.6
28456;BME280;15682;56.742;38.866;2022-09-13T04:45:15;99740.0;;;7.6;78.7
28456;BME280;15682;56.742;38.866;2022-09-13T04:47:15;99740.0;;;7.7;77.7
28456;BME280;15682;56.742;38.866;2022-09-13T04:49:16;99740.0;;;7.7;77.7
28456;BME280;15682;56.742;38.866;2022-09-13T04:51:16;99740.0;;;7.8;77.7
28456;BME280;15682;56.742;38.866;2022-09-13T04:53:16;99740.0;;;7.9;77.7
28456;BME280;15682;56.742;38.866;2022-09-13T04:55:16;99740.0;;;8.1;77.0
28456;BME280;15682;56.742;38.866;2022-09-13T04:57:16;99740.0;;;8.1;77.0
28456;BME280;15682;56.742;38.866;2022-09-13T04:59:16;99740.0;;;8.2;77.0
28456;BME280;15682;56.742;38.866;2022-09-13T05:01:17;99730.0;;;8.4;77.0
28456;BME280;15682;56.742;38.866;2022-09-13T05:03:17;99730.0;;;8.4;75.8
28456;BME280;15682;56.742;38.866;2022-09-13T05:05:17;99740.0;;;8.4;76.6
28456;BME280;15682;56.742;38.866;2022-09-13T05:07:17;99740.0;;;8.4;77.3
28456;BME280;15682;56.742;38.866;2022-09-13T05:09:17;99740.0;;;8.4;77.3
28456;BME280;15682;56.742;38.866;2022-09-13T05:11:17;99740.0;;;8.4;76.9
28456;BME280;15682;56.742;38.866;2022-09-13T05:13:18;99740.0;;;8.4;76.4
28456;BME280;15682;56.742;38.866;2022-09-13T05:15:18;99740.0;;;8.5;77.2
28456;BME280;15682;56.742;38.866;2022-09-13T05:17:18;99740.0;;;8.7;76.2
28456;BME280;15682;56.742;38.866;2022-09-13T05:19:18;99740.0;;;8.7;76.0
28456;BME280;15682;56.742;38.866;2022-09-13T05:21:19;99740.0;;;8.8;75.8
28456;BME280;15682;56.742;38.866;2022-09-13T05:23:18;99740.0;;;9.1;75.2
28456;BME280;15682;56.742;38.866;2022-09-13T05:25:19;99750.0;;;9.2;75.0
28456;BME280;15682;56.742;38.866;2022-09-13T05:27:19;99750.0;;;9.5;75.0
28456;BME280;15682;56.742;38.866;2022-09-13T05:29:19;99750.0;;;9.5;74.1
28456;BME280;15682;56.742;38.866;2022-09-13T05:31:21;99750.0;;;9.6;74.1
28456;BME280;15682;56.742;38.866;2022-09-13T05:33:20;99750.0;;;9.8;73.5
28456;BME280;15682;56.742;38.866;2022-09-13T05:35:20;99750.0;;;9.8;73.2
28456;BME280;15682;56.742;38.866;2022-09-13T05:37:20;99750.0;;;9.9;73.2
28456;BME280;15682;56.742;38.866;2022-09-13T05:39:20;99750.0;;;10.1;72.8
28456;BME280;15682;56.742;38.866;2022-09-13T05:41:21;99750.0;;;10.2;72.8
28456;BME280;15682;56.742;38.866;2022-09-13T05:43:21;99750.0;;;10.1;72.2
28456;BME280;15682;56.742;38.866;2022-09-13T05:45:21;99750.0;;;10.1;72.2
28456;BME280;15682;56.742;38.866;2022-09-13T05:47:21;99750.0;;;10.3;72.2
28456;BME280;15682;56.742;38.866;2022-09-13T05:49:22;99750.0;;;10.4;72.2
28456;BME280;15682;56.742;38.866;2022-09-13T05:51:22;99760.0;;;10.6;72.2
28456;BME280;15682;56.742;38.866;2022-09-13T05:53:22;99760.0;;;10.6;71.2
28456;BME280;15682;56.742;38.866;2022-09-13T05:55:23;99760.0;;;10.7;71.9
28456;BME280;15682;56.742;38.866;2022-09-13T05:57:23;99760.0;;;10.8;71.1
28456;BME280;15682;56.742;38.866;2022-09-13T05:59:24;99760.0;;;10.8;70.4
28456;BME280;15682;56.742;38.866;2022-09-13T06:01:25;99760.0;;;10.8;70.4
28456;BME280;15682;56.742;38.866;2022-09-13T06:03:24;99760.0;;;10.8;69.5
28456;BME280;15682;56.742;38.866;2022-09-13T06:05:24;99760.0;;;11.0;69.6
28456;BME280;15682;56.742;38.866;2022-09-13T06:07:24;99760.0;;;11.0;69.6
28456;BME280;15682;56.742;38.866;2022-09-13T06:09:25;99760.0;;;11.0;68.8
28456;BME280;15682;56.742;38.866;2022-09-13T06:11:25;99760.0;;;11.1;69.4
28456;BME280;15682;56.742;38.866;2022-09-13T06:13:26;99760.0;;;11.3;69.0
28456;BME280;15682;56.742;38.866;2022-09-13T06:15:26;99760.0;;;11.3;68.4
28456;BME280;15682;56.742;38.866;2022-09-13T06:17:26;99760.0;;;11.4;68.9
28456;BME280;15682;56.742;38.866;2022-09-13T06:19:26;99760.0;;;11.4;68.9
28456;BME280;15682;56.742;38.866;2022-09-13T06:21:27;99770.0;;;11.4;68.9
28456;BME280;15682;56.742;38.866;2022-09-13T06:23:27;99770.0;;;11.6;68.9
28456;BME280;15682;56.742;38.866;2022-09-13T06:25:27;99770.0;;;11.7;68.0
28456;BME280;15682;56.742;38.866;2022-09-13T06:27:28;99770.0;;;11.9;68.0
28456;BME280;15682;56.742;38.866;2022-09-13T06:29:28;99770.0;;;12.0;67.2
28456;BME280;15682;56.742;38.866;2022-09-13T06:31:28;99770.0;;;12.0;67.2
28456;BME280;15682;56.742;38.866;2022-09-13T06:33:29;99770.0;;;12.1;66.4
28456;BME280;15682;56.742;38.866;2022-09-13T06:35:29;99770.0;;;12.1;66.4
28456;BME280;15682;56.742;38.866;2022-09-13T06:37:29;99770.0;;;12.1;66.9
28456;BME280;15682;56.742;38.866;2022-09-13T06:39:29;99770.0;;;12.3;66.2
28456;BME280;15682;56.742;38.866;2022-09-13T06:41:29;99770.0;;;12.3;66.8
28456;BME280;15682;56.742;38.866;2022-09-13T06:43:30;99770.0;;;12.3;66.2
28456;BME280;15682;56.742;38.866;2022-09-13T06:45:30;99770.0;;;12.3;65.8
28456;BME280;15682;56.742;38.866;2022-09-13T06:47:31;99760.0;;;12.3;65.8
28456;BME280;15682;56.742;38.866;2022-09-13T06:49:31;99760.0;;;12.4;65.8
28456;BME280;15682;56.742;38.866;2022-09-13T06:51:32;99760.0;;;12.7;65.6
28456;BME280;15682;56.742;38.866;2022-09-13T06:53:33;99760.0;;;12.7;65.6
28456;BME280;15682;56.742;38.866;2022-09-13T06:55:32;99760.0;;;12.9;66.2
28456;BME280;15682;56.742;38.866;2022-09-13T06:57:32;99760.0;;;13.0;65.3
28456;BME280;15682;56.742;38.866;2022-09-13T06:59:32;99750.0;;;12.9;65.3
28456;BME280;15682;56.742;38.866;2022-09-13T07:01:34;99750.0;;;12.9;65.3
28456;BME280;15682;56.742;38.866;2022-09-13T07:03:34;99750.0;;;13.0;65.9
28456;BME280;15682;56.742;38.866;2022-09-13T07:05:33;99750.0;;;13.2;66.6
28456;BME280;15682;56.742;38.866;2022-09-13T07:07:33;99740.0;;;13.2;65.1
28456;BME280;15682;56.742;38.866;2022-09-13T07:09:34;99740.0;;;13.4;65.6
28456;BME280;15682;56.742;38.866;2022-09-13T07:11:36;99740.0;;;13.4;64.8
28456;BME280;15682;56.742;38.866;2022-09-13T07:13:35;99740.0;;;13.4;64.8
28456;BME280;15682;56.742;38.866;2022-09-13T07:15:35;99730.0;;;13.5;64.8
28456;BME280;15682;56.742;38.866;2022-09-13T07:17:35;99730.0;;;13.5;64.0
28456;BME280;15682;56.742;38.866;2022-09-13T07:19:35;99730.0;;;13.6;64.0
28456;BME280;15682;56.742;38.866;2022-09-13T07:21:35;99730.0;;;13.8;64.0
28456;BME280;15682;56.742;38.866;2022-09-13T07:23:38;99730.0;;;13.9;62.8
28456;BME280;15682;56.742;38.866;2022-09-13T07:25:36;99730.0;;;13.9;63.3
28456;BME280;15682;56.742;38.866;2022-09-13T07:27:36;99720.0;;;13.9;64.1
28456;BME280;15682;56.742;38.866;2022-09-13T07:29:36;99720.0;;;14.0;64.1
28456;BME280;15682;56.742;38.866;2022-09-13T07:31:38;99720.0;;;14.1;64.0
28456;BME280;15682;56.742;38.866;2022-09-13T07:33:38;99720.0;;;14.2;64.0
28456;BME280;15682;56.742;38.866;2022-09-13T07:35:37;99720.0;;;14.3;63.4
28456;BME280;15682;56.742;38.866;2022-09-13T07:37:37;99720.0;;;14.1;63.3
28456;BME280;15682;56.742;38.866;2022-09-13T07:39:38;99710.0;;;14.3;63.3
28456;BME280;15682;56.742;38.866;2022-09-13T07:41:38;99710.0;;;14.3;62.4
28456;BME280;15682;56.742;38.866;2022-09-13T07:43:38;99710.0;;;14.5;62.4
28456;BME280;15682;56.742;38.866;2022-09-13T07:45:38;99720.0;;;14.4;62.4
28456;BME280;15682;56.742;38.866;2022-09-13T07:47:39;99710.0;;;14.4;60.6
28456;BME280;15682;56.742;38.866;2022-09-13T07:49:39;99710.0;;;14.6;62.1
28456;BME280;15682;56.742;38.866;2022-09-13T07:51:41;99710.0;;;14.3;62.1
28456;BME280;15682;56.742;38.866;2022-09-13T07:53:41;99700.0;;;14.4;62.1
28456;BME280;15682;56.742;38.866;2022-09-13T07:55:40;99700.0;;;14.6;62.1
28456;BME280;15682;56.742;38.866;2022-09-13T07:57:40;99700.0;;;14.4;62.4
28456;BME280;15682;56.742;38.866;2022-09-13T07:59:40;99700.0;;;14.2;62.2
28456;BME280;15682;56.742;38.866;2022-09-13T08:01:42;99690.0;;;14.2;62.2
28456;BME280;15682;56.742;38.866;2022-09-13T08:03:41;99690.0;;;14.5;61.4
28456;BME280;15682;56.742;38.866;2022-09-13T08:05:41;99690.0;;;14.4;60.6
28456;BME280;15682;56.742;38.866;2022-09-13T08:07:41;99690.0;;;14.7;60.8
28456;BME280;15682;56.742;38.866;2022-09-13T08:09:41;99680.0;;;14.3;60.8
28456;BME280;15682;56.742;38.866;2022-09-13T08:11:44;99680.0;;;14.5;60.8
28456;BME280;15682;56.742;38.866;2022-09-13T08:13:42;99680.0;;;14.9;60.8
28456;BME280;15682;56.742;38.866;2022-09-13T08:15:42;99680.0;;;14.8;60.0
28456;BME280;15682;56.742;38.866;2022-09-13T08:17:42;99680.0;;;14.5;60.1
28456;BME280;15682;56.742;38.866;2022-09-13T08:19:43;99680.0;;;14.6;60.1
28456;BME280;15682;56.742;38.866;2022-09-13T08:21:44;99680.0;;;14.9;59.5
28456;BME280;15682;56.742;38.866;2022-09-13T08:23:43;99680.0;;;15.2;59.5
28456;BME280;15682;56.742;38.866;2022-09-13T08:25:43;99680.0;;;15.4;58.9
28456;BME280;15682;56.742;38.866;2022-09-13T08:27:44;99670.0;;;15.4;58.3
28456;BME280;15682;56.742;38.866;2022-09-13T08:29:44;99670.0;;;15.1;58.9
28456;BME280;15682;56.742;38.866;2022-09-13T08:31:44;99670.0;;;15.1;58.9
28456;BME280;15682;56.742;38.866;2022-09-13T08:33:46;99670.0;;;15.1;58.9
28456;BME280;15682;56.742;38.866;2022-09-13T08:35:49;99660.0;;;15.2;58.9
28456;BME280;15682;56.742;38.866;2022-09-13T08:37:45;99660.0;;;15.2;58.9
28456;BME280;15682;56.742;38.866;2022-09-13T08:39:45;99660.0;;;14.9;58.9
28456;BME280;15682;56.742;38.866;2022-09-13T08:42:01;99660.0;;;15.2;58.9
28456;BME280;15682;56.742;38.866;2022-09-13T08:43:49;99660.0;;;15.4;58.1
28456;BME280;15682;56.742;38.866;2022-09-13T08:45:49;99660.0;;;15.6;58.1
28456;BME280;15682;56.742;38.866;2022-09-13T08:47:51;99660.0;;;15.6;57.9
28456;BME280;15682;56.742;38.866;2022-09-13T08:49:50;99660.0;;;15.2;58.2
28456;BME280;15682;56.742;38.866;2022-09-13T08:51:49;99660.0;;;15.4;58.2
28456;BME280;15682;56.742;38.866;2022-09-13T08:53:54;99650.0;;;15.4;57.6
28456;BME280;15682;56.742;38.866;2022-09-13T08:55:53;99650.0;;;15.7;57.6
28456;BME280;15682;56.742;38.866;2022-09-13T08:57:53;99650.0;;;15.4;57.0
28456;BME280;15682;56.742;38.866;2022-09-13T08:59:56;99640.0;;;15.4;57.0
28456;BME280;15682;56.742;38.866;2022-09-13T09:01:55;99640.0;;;15.5;57.0
28456;BME280;15682;56.742;38.866;2022-09-13T09:03:54;99640.0;;;15.6;57.0
28456;BME280;15682;56.742;38.866;2022-09-13T09:05:50;99640.0;;;15.7;56.2
28456;BME280;15682;56.742;38.866;2022-09-13T09:07:52;99640.0;;;15.7;56.6
28456;BME280;15682;56.742;38.866;2022-09-13T09:09:53;99630.0;;;16.0;56.8
28456;BME280;15682;56.742;38.866;2022-09-13T09:11:54;99630.0;;;16.1;56.8
28456;BME280;15682;56.742;38.866;2022-09-13T09:13:52;99630.0;;;16.1;56.8
28456;BME280;15682;56.742;38.866;2022-09-13T09:15:53;99630.0;;;15.7;56.8
28456;BME280;15682;56.742;38.866;2022-09-13T09:17:56;99630.0;;;15.5;57.5
28456;BME280;15682;56.742;38.866;2022-09-13T09:19:53;99630.0;;;15.3;57.5
28456;BME280;15682;56.742;38.866;2022-09-13T09:21:51;99620.0;;;15.7;57.5
28456;BME280;15682;56.742;38.866;2022-09-13T09:23:53;99620.0;;;15.7;57.5
28456;BME280;15682;56.742;38.866;2022-09-13T09:25:55;99620.0;;;15.4;56.8
28456;BME280;15682;56.742;38.866;2022-09-13T09:27:52;99610.0;;;15.4;57.4
28456;BME280;15682;56.742;38.866;2022-09-13T09:29:54;99610.0;;;15.7;57.4
28456;BME280;15682;56.742;38.866;2022-09-13T09:32:00;99610.0;;;15.9;56.3
28456;BME280;15682;56.742;38.866;2022-09-13T09:34:02;99610.0;;;15.6;57.0
28456;BME280;15682;56.742;38.866;2022-09-13T09:35:59;99610.0;;;15.6;56.5
28456;BME280;15682;56.742;38.866;2022-09-13T09:38:07;99610.0;;;15.6;56.5
28456;BME280;15682;56.742;38.866;2022-09-13T09:39:57;99610.0;;;15.6;55.5
28456;BME280;15682;56.742;38.866;2022-09-13T09:41:54;99610.0;;;15.8;54.7
28456;BME280;15682;56.742;38.866;2022-09-13T09:44:00;99610.0;;;15.6;54.7
28456;BME280;15682;56.742;38.866;2022-09-13T09:45:56;99610.0;;;16.0;55.6
28456;BME280;15682;56.742;38.866;2022-09-13T09:47:55;99610.0;;;16.0;54.8
28456;BME280;15682;56.742;38.866;2022-09-13T09:50:00;99610.0;;;16.0;54.8
28456;BME280;15682;56.742;38.866;2022-09-13T09:51:56;99590.0;;;15.9;54.0
28456;BME280;15682;56.742;38.866;2022-09-13T09:53:59;99590.0;;;15.9;54.6
28456;BME280;15682;56.742;38.866;2022-09-13T09:55:59;99590.0;;;15.8;54.6
28456;BME280;15682;56.742;38.866;2022-09-13T09:57:58;99580.0;;;15.8;54.0
28456;BME280;15682;56.742;38.866;2022-09-13T10:00:09;99590.0;;;15.8;54.0
28456;BME280;15682;56.742;38.866;2022-09-13T10:01:58;99580.0;;;15.8;54.0
28456;BME280;15682;56.742;38.866;2022-09-13T10:04:03;99580.0;;;15.9;54.0
28456;BME280;15682;56.742;38.866;2022-09-13T10:06:04;99580.0;;;15.8;53.4
28456;BME280;15682;56.742;38.866;2022-09-13T10:08:00;99580.0;;;16.2;53.4
28456;BME280;15682;56.742;38.866;2022-09-13T10:10:01;99580.0;;;16.2;52.7
28456;BME280;15682;56.742;38.866;2022-09-13T10:11:58;99570.0;;;15.8;52.7
28456;BME280;15682;56.742;38.866;2022-09-13T10:14:00;99560.0;;;15.7;53.5
28456;BME280;15682;56.742;38.866;2022-09-13T10:16:00;99560.0;;;16.1;53.0
28456;BME280;15682;56.742;38.866;2022-09-13T10:18:02;99560.0;;;16.2;52.2
28456;BME280;15682;56.742;38.866;2022-09-13T10:20:01;99560.0;;;16.4;52.2
28456;BME280;15682;56.742;38.866;2022-09-13T10:22:01;99550.0;;;16.4;52.2
28456;BME280;15682;56.742;38.866;2022-09-13T10:24:18;99550.0;;;16.4;52.2
28456;BME280;15682;56.742;38.866;2022-09-13T10:26:05;99550.0;;;16.2;53.0
28456;BME280;15682;56.742;38.866;2022-09-13T10:28:01;99550.0;;;16.0;53.5
28456;BME280;15682;56.742;38.866;2022-09-13T10:30:02;99550.0;;;16.2;53.5
28456;BME280;15682;56.742;38.866;2022-09-13T10:32:07;99550.0;;;16.2;53.5
28456;BME280;15682;56.742;38.866;2022-09-13T10:34:03;99550.0;;;16.1;54.2
28456;BME280;15682;56.742;38.866;2022-09-13T10:36:04;99550.0;;;16.3;53.5
28456;BME280;15682;56.742;38.866;2022-09-13T10:38:02;99540.0;;;16.3;52.6
28456;BME280;15682;56.742;38.866;2022-09-13T10:40:05;99530.0;;;16.3;53.3
28456;BME280;15682;56.742;38.866;2022-09-13T10:42:04;99530.0;;;16.3;53.3
28456;BME280;15682;56.742;38.866;2022-09-13T10:44:05;99530.0;;;16.3;52.7
28456;BME280;15682;56.742;38.866;2022-09-13T10:46:05;99530.0;;;16.2;53.1
28456;BME280;15682;56.742;38.866;2022-09-13T10:48:08;99530.0;;;16.2;52.1
28456;BME280;15682;56.742;38.866;2022-09-13T10:50:18;99530.0;;;16.3;52.7
28456;BME280;15682;56.742;38.866;2022-09-13T10:52:27;99530.0;;;16.2;52.7
28456;BME280;15682;56.742;38.866;2022-09-13T10:54:20;99530.0;;;16.4;52.7